Mc Nary, Texas
Current Conditions -  °F | °C
As of 8:48 AM on Friday 21 Nov 2014 (Local Time) from MMCS Reporting Station
Broken Clouds Broken Clouds  
Wind Chill: 41°   Ceiling: 25000
Heat Index: 45°   Visibility: 10mi
Dew Point: 16°   Wind: 6mph
Humidity: 31%   Direction: 360°N
Pressure: 30"   Gusts: NA
Location:  31.5192°N, 105.683°W
Report Text: MMCS 211548Z 36005KT 10SM BKN250 07/M09 A3000 RMK 8/006
Loading
Personal Weather Stations






























Interactive Weather Map New forecast layout! Learn more

10-Day Weather Forecast

Advertisements
Track Severe Weather on mobile